createdAt,value
2022-09-15T00:00:30.912Z,91.62
2022-09-15T00:03:18.494Z,91.69
2022-09-15T00:06:06.141Z,91.67
2022-09-15T00:08:53.682Z,90.21
2022-09-15T00:11:41.237Z,88.39
2022-09-15T00:14:28.763Z,85.16
2022-09-15T00:17:16.303Z,86.43
2022-09-15T00:20:05.872Z,84.84
2022-09-15T00:22:53.455Z,86.59
2022-09-15T00:25:40.989Z,86.13
2022-09-15T00:28:28.628Z,85.98
2022-09-15T00:31:16.305Z,86.17
2022-09-15T00:34:04.009Z,87.88
2022-09-15T00:36:51.563Z,85.66
2022-09-15T00:39:39.157Z,86.37
2022-09-15T00:42:26.702Z,84.24
2022-09-15T00:45:14.242Z,83.13
2022-09-15T00:48:01.810Z,83.70
2022-09-15T00:50:49.345Z,86.29
2022-09-15T00:53:36.976Z,84.18
2022-09-15T00:56:26.496Z,84.20
2022-09-15T00:59:14.049Z,83.47
2022-09-15T01:02:01.619Z,84.60
2022-09-15T01:04:49.247Z,84.66
2022-09-15T01:07:36.785Z,84.02
2022-09-15T01:10:24.347Z,83.99
2022-09-15T01:13:11.860Z,85.85
2022-09-15T01:15:59.398Z,87.64
2022-09-15T01:18:46.915Z,88.73
2022-09-15T01:21:34.470Z,87.30
2022-09-15T01:24:21.987Z,88.34
2022-09-15T01:27:24.428Z,88.38
2022-09-15T01:30:17.073Z,88.16
2022-09-15T01:33:04.631Z,87.30
2022-09-15T01:35:52.216Z,87.10
2022-09-15T01:38:39.764Z,86.55
2022-09-15T01:41:27.455Z,86.44
2022-09-15T01:44:17.089Z,88.64
2022-09-15T01:47:04.678Z,88.47
2022-09-15T01:49:52.309Z,87.95
2022-09-15T01:52:39.878Z,89.03
2022-09-15T01:55:27.532Z,90.96
2022-09-15T01:58:15.121Z,92.00
2022-09-15T02:01:02.761Z,90.79
2022-09-15T02:03:50.425Z,91.20
2022-09-15T02:06:37.990Z,90.49
2022-09-15T02:09:25.522Z,89.42
2022-09-15T02:12:13.090Z,89.87
2022-09-15T02:15:00.634Z,91.88
2022-09-15T02:17:50.187Z,89.57
2022-09-15T02:20:37.722Z,89.33
2022-09-15T02:23:25.279Z,88.33
2022-09-15T02:26:12.809Z,88.26
2022-09-15T02:29:00.467Z,87.82
2022-09-15T02:31:48.061Z,85.60
2022-09-15T02:34:35.651Z,85.40
2022-09-15T02:37:23.213Z,83.28
2022-09-15T02:40:10.832Z,84.37
2022-09-15T02:42:58.473Z,86.11
2022-09-15T02:45:46.109Z,85.96
2022-09-15T02:48:33.706Z,86.46
2022-09-15T02:51:21.279Z,87.17
2022-09-15T02:54:08.813Z,87.99
2022-09-15T02:56:56.372Z,87.60
2022-09-15T02:59:43.918Z,89.47
2022-09-15T03:02:31.586Z,88.72
2022-09-15T03:05:19.264Z,89.17
2022-09-15T03:08:06.856Z,89.63
2022-09-15T03:10:54.437Z,91.89
2022-09-15T03:13:41.984Z,91.50
2022-09-15T03:16:29.553Z,91.79
2022-09-15T03:19:17.190Z,92.32
2022-09-15T03:22:04.746Z,92.50
2022-09-15T03:24:52.307Z,91.49
2022-09-15T03:27:39.880Z,92.27
2022-09-15T03:30:27.444Z,92.23
2022-09-15T03:33:15.030Z,93.30
2022-09-15T03:36:02.746Z,92.19
2022-09-15T03:38:50.353Z,91.70
2022-09-15T03:41:37.930Z,91.92
2022-09-15T03:44:25.472Z,92.33
2022-09-15T03:47:13.137Z,91.28
2022-09-15T03:50:00.687Z,89.85
2022-09-15T03:52:48.249Z,90.71
2022-09-15T03:55:35.767Z,89.32
2022-09-15T03:58:23.756Z,90.29
2022-09-15T04:01:12.895Z,88.00
2022-09-15T04:04:00.622Z,88.16
2022-09-15T04:06:48.218Z,87.52
2022-09-15T04:09:35.778Z,87.54
2022-09-15T04:12:23.319Z,87.72
2022-09-15T04:15:10.898Z,87.54
2022-09-15T04:17:58.453Z,87.58
2022-09-15T04:20:48.765Z,87.87
2022-09-15T04:23:36.306Z,87.38
2022-09-15T04:26:25.911Z,88.16
2022-09-15T04:29:13.463Z,87.87
2022-09-15T04:32:01.026Z,87.40
2022-09-15T04:34:48.568Z,87.65
2022-09-15T04:37:36.146Z,87.96
2022-09-15T04:40:23.894Z,87.37
2022-09-15T04:43:11.489Z,87.58
2022-09-15T04:45:59.058Z,85.80
2022-09-15T04:48:46.726Z,87.86
2022-09-15T04:51:34.382Z,85.60
2022-09-15T04:54:23.934Z,84.57
2022-09-15T04:57:11.479Z,83.84
2022-09-15T05:00:18.096Z,86.66
2022-09-15T05:03:05.684Z,84.40
2022-09-15T05:05:53.233Z,85.62
2022-09-15T05:08:40.818Z,85.90
2022-09-15T05:11:28.372Z,87.57
2022-09-15T05:14:16.015Z,87.25
2022-09-15T05:17:05.576Z,88.34
2022-09-15T05:19:53.144Z,88.89
2022-09-15T05:22:41.975Z,89.17
2022-09-15T05:25:29.696Z,88.93
2022-09-15T05:28:17.233Z,91.55
2022-09-15T05:31:04.867Z,90.67
2022-09-15T05:33:52.461Z,90.53
2022-09-15T05:36:40.030Z,90.88
2022-09-15T05:39:46.548Z,89.61
2022-09-15T05:42:34.215Z,89.44
2022-09-15T05:45:23.742Z,89.93
2022-09-15T05:48:11.315Z,88.63
2022-09-15T05:50:58.857Z,89.09
2022-09-15T05:53:46.438Z,88.07
2022-09-15T05:56:33.985Z,88.72
2022-09-15T05:59:21.551Z,88.25
2022-09-15T06:02:09.182Z,87.72
2022-09-15T06:04:56.793Z,87.40
2022-09-15T06:07:44.372Z,92.32
2022-09-15T06:10:31.947Z,96.27
2022-09-15T06:13:19.510Z,90.69
2022-09-15T06:16:07.237Z,91.60
2022-09-15T06:18:54.832Z,91.45
2022-09-15T06:21:42.512Z,91.17
2022-09-15T06:24:30.114Z,89.90
2022-09-15T06:27:17.705Z,89.46
2022-09-15T06:30:05.275Z,87.69
2022-09-15T06:32:52.862Z,88.63
2022-09-15T06:35:40.431Z,89.64
2022-09-15T06:38:28.013Z,86.94
2022-09-15T06:41:17.595Z,87.75
2022-09-15T06:44:05.142Z,89.71
2022-09-15T06:46:52.711Z,88.80
2022-09-15T06:49:40.267Z,88.68
2022-09-15T06:52:27.927Z,88.40
2022-09-15T06:55:15.489Z,90.45
2022-09-15T06:58:03.060Z,90.41
2022-09-15T07:00:50.642Z,90.29
2022-09-15T07:03:38.271Z,89.54
2022-09-15T07:06:27.879Z,90.53
2022-09-15T07:09:15.452Z,91.40
2022-09-15T07:12:03.011Z,93.06
2022-09-15T07:14:50.601Z,93.38
2022-09-15T07:17:40.135Z,92.17
2022-09-15T07:20:27.710Z,93.36
2022-09-15T07:23:15.271Z,93.43
2022-09-15T07:26:02.849Z,92.79
2022-09-15T07:28:50.434Z,93.67
2022-09-15T07:31:38.127Z,92.96
2022-09-15T07:34:25.699Z,92.09
2022-09-15T07:37:13.323Z,92.00
2022-09-15T07:40:00.943Z,91.43
2022-09-15T07:42:48.557Z,91.29
2022-09-15T07:45:36.200Z,89.78
2022-09-15T07:48:26.448Z,90.89
2022-09-15T07:51:14.303Z,89.64
2022-09-15T07:54:01.852Z,88.63
2022-09-15T07:56:49.527Z,88.08
2022-09-15T07:59:41.236Z,87.61
2022-09-15T08:02:29.038Z,88.27
2022-09-15T08:05:16.642Z,89.35
2022-09-15T08:08:04.220Z,88.51
2022-09-15T08:10:51.765Z,87.10
2022-09-15T08:13:39.352Z,87.14
2022-09-15T08:16:26.973Z,88.22
2022-09-15T08:19:14.567Z,88.05
2022-09-15T08:22:02.116Z,88.83
2022-09-15T08:24:49.686Z,87.18
2022-09-15T08:27:37.238Z,88.57
2022-09-15T08:30:24.810Z,87.89
2022-09-15T08:33:12.354Z,85.36
2022-09-15T08:35:59.958Z,85.29
2022-09-15T08:38:47.533Z,86.23
2022-09-15T08:41:35.106Z,86.35
2022-09-15T08:44:22.710Z,84.63
2022-09-15T08:47:10.275Z,86.60
2022-09-15T08:49:57.834Z,85.26
2022-09-15T08:52:45.405Z,84.75
2022-09-15T08:55:32.980Z,84.60
2022-09-15T08:58:20.555Z,84.09
2022-09-15T09:01:08.142Z,83.94
2022-09-15T09:03:55.676Z,82.29
2022-09-15T09:06:43.238Z,84.37
2022-09-15T09:09:30.780Z,83.32
2022-09-15T09:12:18.352Z,84.80
2022-09-15T09:15:05.892Z,79.28
2022-09-15T09:17:53.464Z,81.58
2022-09-15T09:20:41.171Z,81.09
2022-09-15T09:23:30.748Z,80.22
2022-09-15T09:26:18.302Z,82.35
2022-09-15T09:29:07.898Z,78.16
2022-09-15T09:31:55.467Z,79.50
2022-09-15T09:34:43.051Z,81.66
2022-09-15T09:37:30.640Z,81.40
2022-09-15T09:40:18.284Z,78.87
2022-09-15T09:43:05.888Z,77.85
2022-09-15T09:45:53.464Z,80.43
2022-09-15T09:48:41.097Z,79.68
2022-09-15T09:51:28.657Z,78.15
2022-09-15T09:54:16.283Z,79.86
2022-09-15T09:57:03.839Z,77.56
2022-09-15T09:59:51.421Z,77.33
2022-09-15T10:02:38.977Z,75.89
2022-09-15T10:05:26.629Z,75.98
2022-09-15T10:08:16.168Z,75.82
2022-09-15T10:11:03.749Z,74.71
2022-09-15T10:13:51.329Z,76.59
2022-09-15T10:16:38.991Z,76.23
2022-09-15T10:19:26.585Z,75.33
2022-09-15T10:22:14.258Z,79.50
2022-09-15T10:25:03.814Z,78.68
2022-09-15T10:27:51.400Z,78.25
2022-09-15T10:30:38.956Z,74.71
2022-09-15T10:33:26.541Z,73.97
2022-09-15T10:36:14.107Z,75.89
2022-09-15T10:39:01.679Z,76.06
2022-09-15T10:41:49.249Z,76.89
2022-09-15T10:44:36.834Z,77.48
2022-09-15T10:47:24.389Z,79.63
2022-09-15T10:50:11.971Z,78.14
2022-09-15T10:52:59.515Z,77.81
2022-09-15T10:55:52.645Z,77.24
2022-09-15T10:58:43.522Z,77.26
2022-09-15T11:01:33.251Z,78.86
2022-09-15T11:04:20.899Z,77.66
2022-09-15T11:07:08.604Z,78.58
2022-09-15T11:09:58.136Z,80.63
2022-09-15T11:12:45.743Z,80.81
2022-09-15T11:15:33.370Z,82.73
2022-09-15T11:18:20.972Z,83.10
2022-09-15T11:21:08.533Z,84.34
2022-09-15T11:23:56.114Z,87.86
2022-09-15T11:26:43.677Z,88.72
2022-09-15T11:29:33.245Z,88.82
2022-09-15T11:32:20.788Z,87.94
2022-09-15T11:35:08.355Z,88.18
2022-09-15T11:37:55.930Z,87.81
2022-09-15T11:40:43.503Z,85.03
2022-09-15T11:43:31.061Z,86.06
2022-09-15T11:46:20.658Z,83.60
2022-09-15T11:49:08.345Z,85.66
2022-09-15T11:51:55.909Z,82.73
2022-09-15T11:54:43.465Z,83.44
2022-09-15T11:57:31.027Z,83.55
2022-09-15T12:00:18.583Z,81.65
2022-09-15T12:03:06.322Z,83.83
2022-09-15T12:05:55.881Z,81.95
2022-09-15T12:08:43.470Z,83.74
2022-09-15T12:11:31.030Z,84.17
2022-09-15T12:14:18.614Z,83.67
2022-09-15T12:17:06.167Z,83.46
2022-09-15T12:19:53.837Z,83.59
2022-09-15T12:22:41.402Z,85.88
2022-09-15T12:25:29.070Z,86.28
2022-09-15T12:28:16.629Z,86.87
2022-09-15T12:31:04.203Z,86.96
2022-09-15T12:33:51.830Z,88.37
2022-09-15T12:36:39.438Z,88.91
2022-09-15T12:39:27.057Z,88.30
2022-09-15T12:42:14.628Z,88.10
2022-09-15T12:45:02.184Z,88.06
2022-09-15T12:47:49.744Z,84.44
2022-09-15T12:50:37.340Z,88.22
2022-09-15T12:53:24.944Z,88.08
2022-09-15T12:56:12.536Z,88.94
2022-09-15T12:59:04.501Z,87.39
2022-09-15T13:01:54.252Z,86.68
2022-09-15T13:04:41.888Z,87.84
2022-09-15T13:07:29.488Z,88.91
2022-09-15T13:10:17.110Z,89.71
2022-09-15T13:13:04.677Z,91.41
2022-09-15T13:15:52.264Z,91.44
2022-09-15T13:18:39.870Z,91.44
2022-09-15T13:21:27.441Z,90.98
2022-09-15T13:24:15.021Z,92.97
2022-09-15T13:27:02.565Z,90.40
2022-09-15T13:29:50.117Z,89.67
2022-09-15T13:32:37.664Z,92.33
2022-09-15T13:35:26.543Z,87.47
2022-09-15T13:38:22.697Z,89.16
2022-09-15T13:41:12.716Z,89.88
2022-09-15T13:44:02.324Z,89.18
2022-09-15T13:46:49.889Z,84.78
2022-09-15T13:49:37.484Z,85.15
2022-09-15T13:52:25.042Z,83.29
2022-09-15T13:55:12.677Z,80.85
2022-09-15T14:01:07.927Z,82.35
2022-09-15T14:03:55.531Z,80.75
2022-09-15T14:06:43.119Z,84.02
2022-09-15T14:09:30.696Z,83.47
2022-09-15T14:12:18.271Z,84.10
2022-09-15T14:15:05.949Z,86.25
2022-09-15T14:17:53.521Z,86.71
2022-09-15T14:20:41.098Z,88.70
2022-09-15T14:23:28.657Z,85.59
2022-09-15T14:26:16.224Z,83.12
2022-09-15T14:29:03.909Z,83.80
2022-09-15T14:31:51.529Z,83.01
2022-09-15T14:34:39.182Z,82.42
2022-09-15T14:37:28.515Z,85.24
2022-09-15T14:40:16.256Z,86.14
2022-09-15T14:43:06.041Z,82.65
2022-09-15T14:45:58.635Z,81.37
2022-09-15T14:48:48.468Z,77.83
2022-09-15T14:51:36.052Z,78.66
2022-09-15T14:54:23.660Z,76.92
2022-09-15T14:57:11.218Z,77.21
2022-09-15T14:59:58.774Z,77.78
2022-09-15T15:02:46.348Z,76.10
2022-09-15T15:05:33.905Z,76.43
2022-09-15T15:08:21.490Z,76.32
2022-09-15T15:11:09.043Z,76.74
2022-09-15T15:13:56.635Z,75.61
2022-09-15T15:16:44.258Z,74.65
2022-09-15T15:19:31.842Z,80.49
2022-09-15T15:22:19.612Z,80.34
2022-09-15T15:25:07.224Z,76.99
2022-09-15T15:27:54.794Z,79.67
2022-09-15T15:30:42.348Z,79.33
2022-09-15T15:33:29.991Z,79.60
2022-09-15T15:36:17.562Z,77.97
2022-09-15T15:39:05.131Z,77.18
2022-09-15T15:41:52.689Z,79.52
2022-09-15T15:44:40.312Z,83.88
2022-09-15T15:47:27.852Z,82.89
2022-09-15T15:50:15.523Z,88.10
2022-09-15T15:53:03.157Z,83.47
2022-09-15T15:55:50.715Z,83.36
2022-09-15T15:58:38.306Z,83.42
2022-09-15T16:01:25.888Z,81.58
2022-09-15T16:04:13.496Z,82.39
2022-09-15T16:07:01.127Z,83.88
2022-09-15T16:09:48.740Z,82.29
2022-09-15T16:12:36.380Z,82.58
2022-09-15T16:15:23.968Z,83.77
2022-09-15T16:18:11.531Z,85.20
2022-09-15T16:20:59.077Z,87.15
2022-09-15T16:23:46.633Z,88.25
2022-09-15T16:26:34.200Z,86.72
2022-09-15T16:29:23.728Z,86.74
2022-09-15T16:32:11.283Z,84.46
2022-09-15T16:34:58.832Z,86.12
2022-09-15T16:37:46.490Z,86.46
2022-09-15T16:40:36.093Z,86.01
2022-09-15T16:43:23.771Z,85.26
2022-09-15T16:46:11.366Z,88.09
2022-09-15T16:48:58.954Z,89.65
2022-09-15T16:51:46.487Z,91.25
2022-09-15T16:54:34.065Z,87.54
2022-09-15T16:57:21.606Z,88.06
2022-09-15T17:00:09.181Z,89.67
2022-09-15T17:02:56.739Z,88.93
2022-09-15T17:05:48.299Z,90.71
2022-09-15T17:08:36.156Z,95.28
2022-09-15T17:11:23.741Z,93.86
2022-09-15T17:14:11.288Z,93.87
2022-09-15T17:16:58.849Z,93.90
2022-09-15T17:19:46.385Z,93.80
2022-09-15T17:22:34.056Z,92.91
2022-09-15T17:25:21.607Z,91.69
2022-09-15T17:28:09.166Z,92.66
2022-09-15T17:30:56.781Z,92.97
2022-09-15T17:33:44.384Z,92.04
2022-09-15T17:36:31.950Z,91.71
2022-09-15T17:39:24.295Z,91.92
2022-09-15T17:42:14.671Z,92.93
2022-09-15T17:45:02.260Z,93.86
2022-09-15T17:47:49.818Z,93.28
2022-09-15T17:50:37.398Z,93.48
2022-09-15T17:53:26.953Z,94.76
2022-09-15T17:56:14.495Z,93.38
2022-09-15T17:59:02.076Z,94.08
2022-09-15T18:01:49.707Z,93.70
2022-09-15T18:04:37.369Z,92.38
2022-09-15T18:07:24.930Z,92.99
2022-09-15T18:10:12.513Z,92.74
2022-09-15T18:13:00.126Z,90.27
2022-09-15T18:15:47.742Z,91.19
2022-09-15T18:18:35.322Z,90.45
2022-09-15T18:21:22.892Z,93.57
2022-09-15T18:24:10.471Z,91.80
2022-09-15T18:26:58.017Z,93.89
2022-09-15T18:29:45.563Z,91.37
2022-09-15T18:32:33.111Z,92.45
2022-09-15T18:35:20.800Z,90.68
2022-09-15T18:38:08.359Z,91.30
2022-09-15T18:40:55.931Z,91.30
2022-09-15T18:43:43.527Z,90.69
2022-09-15T18:46:31.277Z,91.07
2022-09-15T18:49:18.877Z,92.96
2022-09-15T18:52:06.460Z,92.47
2022-09-15T18:54:54.013Z,91.15
2022-09-15T18:57:41.593Z,91.12
2022-09-15T19:00:29.173Z,90.25
2022-09-15T19:03:16.727Z,90.64
2022-09-15T19:06:04.398Z,91.30
2022-09-15T19:08:52.004Z,90.83
2022-09-15T19:11:39.807Z,92.08
2022-09-15T19:14:27.367Z,91.21
2022-09-15T19:17:14.975Z,90.34
2022-09-15T19:20:02.549Z,90.13
2022-09-15T19:22:50.116Z,88.14
2022-09-15T19:25:37.681Z,90.06
2022-09-15T19:28:25.251Z,90.58
2022-09-15T19:31:12.833Z,89.36
2022-09-15T19:34:00.444Z,90.81
2022-09-15T19:36:48.005Z,89.62
2022-09-15T19:39:35.607Z,89.76
2022-09-15T19:42:23.153Z,89.52
2022-09-15T19:45:10.738Z,91.16
2022-09-15T19:47:58.276Z,91.60
2022-09-15T19:50:45.833Z,91.80
2022-09-15T19:53:33.383Z,92.68
2022-09-15T19:56:21.641Z,92.06
2022-09-15T19:59:09.214Z,90.24
2022-09-15T20:01:56.829Z,90.93
2022-09-15T20:04:44.381Z,92.73
2022-09-15T20:07:31.953Z,90.42
2022-09-15T20:10:19.542Z,90.99
2022-09-15T20:13:07.115Z,90.70
2022-09-15T20:15:54.650Z,90.19
2022-09-15T20:18:42.317Z,91.00
2022-09-15T20:21:49.176Z,91.43
2022-09-15T20:24:37.380Z,89.23
2022-09-15T20:27:24.911Z,88.06
2022-09-15T20:30:12.480Z,87.94
2022-09-15T20:33:00.015Z,85.07
2022-09-15T20:35:47.582Z,82.95
2022-09-15T20:38:35.128Z,82.71
2022-09-15T20:41:22.807Z,80.46
2022-09-15T20:44:10.328Z,81.43
2022-09-15T20:46:57.892Z,79.92
2022-09-15T20:49:45.453Z,78.97
2022-09-15T20:52:38.116Z,78.66
2022-09-15T20:55:26.048Z,80.40
2022-09-15T20:58:13.589Z,77.92
2022-09-15T21:01:01.203Z,78.60
2022-09-15T21:03:48.771Z,79.65
2022-09-15T21:06:37.898Z,78.08
2022-09-15T21:09:27.429Z,79.88
2022-09-15T21:12:15.001Z,82.13
2022-09-15T21:15:02.542Z,80.29
2022-09-15T21:17:50.120Z,82.08
2022-09-15T21:20:37.651Z,81.04
2022-09-15T21:23:25.208Z,80.41
2022-09-15T21:26:12.765Z,80.98
2022-09-15T21:29:00.326Z,80.83
2022-09-15T21:31:47.907Z,80.23
2022-09-15T21:34:35.501Z,81.25
2022-09-15T21:37:23.055Z,82.43
2022-09-15T21:40:10.674Z,80.93
2022-09-15T21:42:58.286Z,79.83
2022-09-15T21:45:45.896Z,77.78
2022-09-15T21:48:33.510Z,77.53
2022-09-15T21:51:24.701Z,77.97
2022-09-15T21:54:12.785Z,77.18
2022-09-15T21:57:00.364Z,74.80
2022-09-15T21:59:47.908Z,74.49
2022-09-15T22:02:35.564Z,72.98
2022-09-15T22:05:23.127Z,71.79
2022-09-15T22:08:10.676Z,70.81
2022-09-15T22:10:58.216Z,70.01
2022-09-15T22:13:45.776Z,70.07
2022-09-15T22:16:33.467Z,71.20
2022-09-15T22:19:21.061Z,68.91
2022-09-15T22:22:08.612Z,71.37
2022-09-15T22:24:56.168Z,69.81
2022-09-15T22:27:43.852Z,70.63
2022-09-15T22:30:31.399Z,70.17
2022-09-15T22:33:18.964Z,68.17
2022-09-15T22:36:06.526Z,69.59
2022-09-15T22:38:54.184Z,71.44
2022-09-15T22:41:41.862Z,74.41
2022-09-15T22:44:29.431Z,71.75
2022-09-15T22:47:16.969Z,73.54
2022-09-15T22:50:04.626Z,71.64
2022-09-15T22:52:52.179Z,71.29
2022-09-15T22:55:39.756Z,72.85
2022-09-15T22:58:27.297Z,71.01
2022-09-15T23:01:14.930Z,71.92
2022-09-15T23:04:02.512Z,71.75
2022-09-15T23:06:50.085Z,74.11
2022-09-15T23:09:37.628Z,74.02
2022-09-15T23:12:25.189Z,75.51
2022-09-15T23:15:12.742Z,74.82
2022-09-15T23:18:00.330Z,71.82
2022-09-15T23:20:47.898Z,73.14
2022-09-15T23:23:35.456Z,70.46
2022-09-15T23:26:23.000Z,71.10
2022-09-15T23:29:10.563Z,70.01
2022-09-15T23:31:58.180Z,68.30
2022-09-15T23:34:45.802Z,66.57
2022-09-15T23:37:33.351Z,64.93
2022-09-15T23:40:20.986Z,63.67
2022-09-15T23:43:08.583Z,62.65
2022-09-15T23:45:56.843Z,61.40
2022-09-15T23:48:44.401Z,60.09
2022-09-15T23:51:32.137Z,59.45
2022-09-15T23:54:19.697Z,59.43
2022-09-15T23:57:07.256Z,58.54
2022-09-15T23:59:54.797Z,58.46
